createdAt,value
2023-05-15T00:01:05.665Z,13.85
2023-05-15T00:03:35.491Z,13.86
2023-05-15T00:06:06.878Z,13.83
2023-05-15T00:08:37.713Z,13.80
2023-05-15T00:11:07.974Z,13.78
2023-05-15T00:13:39.710Z,13.78
2023-05-15T00:16:10.674Z,13.73
2023-05-15T00:18:42.507Z,13.61
2023-05-15T00:21:14.626Z,13.59
2023-05-15T00:23:44.932Z,13.52
2023-05-15T00:26:16.913Z,13.52
2023-05-15T00:28:47.502Z,13.50
2023-05-15T00:31:18.853Z,13.47
2023-05-15T00:33:49.704Z,13.45
2023-05-15T00:36:19.578Z,13.47
2023-05-15T00:38:50.933Z,13.44
2023-05-15T00:41:24.203Z,13.42
2023-05-15T00:43:56.865Z,13.37
2023-05-15T00:46:30.036Z,13.27
2023-05-15T00:49:02.066Z,13.35
2023-05-15T00:51:35.726Z,13.31
2023-05-15T00:54:07.087Z,13.31
2023-05-15T00:56:38.637Z,13.28
2023-05-15T00:59:09.782Z,13.22
2023-05-15T01:01:42.485Z,13.18
2023-05-15T01:04:13.074Z,13.17
2023-05-15T01:06:43.457Z,13.13
2023-05-15T01:09:16.346Z,13.08
2023-05-15T01:11:51.861Z,13.07
2023-05-15T01:14:21.979Z,13.08
2023-05-15T01:16:53.168Z,13.11
2023-05-15T01:19:24.137Z,13.07
2023-05-15T01:22:18.876Z,13.04
2023-05-15T01:24:48.928Z,13.06
2023-05-15T01:27:23.885Z,13.03
2023-05-15T01:30:12.969Z,13.03
2023-05-15T01:32:57.448Z,13.01
2023-05-15T01:35:43.965Z,13.01
2023-05-15T01:38:32.511Z,12.99
2023-05-15T01:41:27.501Z,12.96
2023-05-15T01:44:37.590Z,12.99
2023-05-15T01:47:22.644Z,13.01
2023-05-15T01:49:54.775Z,12.99
2023-05-15T01:52:48.546Z,12.99
2023-05-15T01:55:22.201Z,12.96
2023-05-15T01:57:54.198Z,12.96
2023-05-15T02:00:24.669Z,12.92
2023-05-15T02:02:56.567Z,12.94
2023-05-15T02:05:28.606Z,12.93
2023-05-15T02:07:59.484Z,12.90
2023-05-15T02:10:30.344Z,12.87
2023-05-15T02:13:03.131Z,12.90
2023-05-15T02:15:34.228Z,12.90
2023-05-15T02:18:04.354Z,12.86
2023-05-15T02:20:34.264Z,12.84
2023-05-15T02:23:04.938Z,12.82
2023-05-15T02:26:16.858Z,12.76
2023-05-15T02:28:56.813Z,12.72
2023-05-15T02:31:52.839Z,12.69
2023-05-15T02:34:43.334Z,12.70
2023-05-15T02:37:20.794Z,12.67
2023-05-15T02:39:55.688Z,12.63
2023-05-15T02:42:26.895Z,12.60
2023-05-15T02:44:58.495Z,12.49
2023-05-15T02:47:31.813Z,12.38
2023-05-15T02:50:04.206Z,12.34
2023-05-15T02:52:37.422Z,12.35
2023-05-15T02:55:09.441Z,12.38
2023-05-15T02:57:40.082Z,12.41
2023-05-15T03:00:12.960Z,12.36
2023-05-15T03:02:44.200Z,12.26
2023-05-15T03:05:15.232Z,12.25
2023-05-15T03:07:46.441Z,12.29
2023-05-15T03:10:16.982Z,12.26
2023-05-15T03:12:48.436Z,12.32
2023-05-15T03:15:19.406Z,12.31
2023-05-15T03:17:49.602Z,12.31
2023-05-15T03:20:19.949Z,12.28
2023-05-15T03:22:50.916Z,12.22
2023-05-15T03:25:22.351Z,12.24
2023-05-15T03:27:53.233Z,12.20
2023-05-15T03:30:23.462Z,12.15
2023-05-15T03:32:56.060Z,12.15
2023-05-15T03:35:28.153Z,12.15
2023-05-15T03:37:58.352Z,12.08
2023-05-15T03:40:28.964Z,12.10
2023-05-15T03:43:00.659Z,12.05
2023-05-15T03:45:31.740Z,12.05
2023-05-15T03:48:02.714Z,12.08
2023-05-15T03:50:33.165Z,12.08
2023-05-15T03:53:03.034Z,12.06
2023-05-15T03:55:33.299Z,12.04
2023-05-15T03:58:04.566Z,12.02
2023-05-15T04:00:38.917Z,12.05
2023-05-15T04:03:08.987Z,12.06
2023-05-15T04:05:39.222Z,12.01
2023-05-15T04:08:11.265Z,12.04
2023-05-15T04:10:41.657Z,12.08
2023-05-15T04:13:11.407Z,12.06
2023-05-15T04:15:42.545Z,12.01
2023-05-15T04:18:12.272Z,11.94
2023-05-15T04:20:42.944Z,11.94
2023-05-15T04:23:13.295Z,11.94
2023-05-15T04:25:48.140Z,11.94
2023-05-15T04:28:18.943Z,11.90
2023-05-15T04:30:49.320Z,11.83
2023-05-15T04:33:20.054Z,11.80
2023-05-15T04:35:50.461Z,11.78
2023-05-15T04:38:19.736Z,11.77
2023-05-15T04:40:54.638Z,11.75
2023-05-15T04:43:25.852Z,11.80
2023-05-15T04:45:57.116Z,11.70
2023-05-15T04:48:27.216Z,11.66
2023-05-15T04:50:56.712Z,11.70
2023-05-15T04:53:26.697Z,11.71
2023-05-15T04:55:57.170Z,11.74
2023-05-15T04:58:28.868Z,11.75
2023-05-15T05:00:59.314Z,11.74
2023-05-15T05:03:30.573Z,11.73
2023-05-15T05:06:00.800Z,11.73
2023-05-15T05:08:32.001Z,11.71
2023-05-15T05:11:02.107Z,11.75
2023-05-15T05:13:31.825Z,11.71
2023-05-15T05:16:02.205Z,11.73
2023-05-15T05:18:37.780Z,11.69
2023-05-15T05:21:08.274Z,11.66
2023-05-15T05:23:38.911Z,11.69
2023-05-15T05:26:09.275Z,11.60
2023-05-15T05:28:38.908Z,11.60
2023-05-15T05:31:09.913Z,11.59
2023-05-15T05:33:40.476Z,11.59
2023-05-15T05:36:10.571Z,11.59
2023-05-15T05:38:40.522Z,11.56
2023-05-15T05:41:09.877Z,11.42
2023-05-15T05:43:40.648Z,11.35
2023-05-15T05:46:10.844Z,11.32
2023-05-15T05:48:41.019Z,11.33
2023-05-15T05:51:10.281Z,11.33
2023-05-15T05:53:40.292Z,11.35
2023-05-15T05:56:10.624Z,11.36
2023-05-15T05:58:43.251Z,11.37
2023-05-15T06:01:13.510Z,11.36
2023-05-15T06:03:44.990Z,11.23
2023-05-15T06:06:15.636Z,11.20
2023-05-15T06:08:45.902Z,11.22
2023-05-15T06:11:16.317Z,11.23
2023-05-15T06:13:46.065Z,11.22
2023-05-15T06:16:16.152Z,11.23
2023-05-15T06:18:46.071Z,11.23
2023-05-15T06:21:17.036Z,11.23
2023-05-15T06:23:46.991Z,11.23
2023-05-15T06:26:19.223Z,11.22
2023-05-15T06:28:49.772Z,11.23
2023-05-15T06:31:20.381Z,11.09
2023-05-15T06:33:50.967Z,11.06
2023-05-15T06:36:21.965Z,11.05
2023-05-15T06:38:53.035Z,11.12
2023-05-15T06:41:23.853Z,11.12
2023-05-15T06:43:53.564Z,11.12
2023-05-15T06:46:23.776Z,11.05
2023-05-15T06:48:53.655Z,11.05
2023-05-15T06:51:23.704Z,11.01
2023-05-15T06:53:53.461Z,10.99
2023-05-15T06:56:23.624Z,11.02
2023-05-15T06:58:53.323Z,11.01
2023-05-15T07:01:22.787Z,10.98
2023-05-15T07:03:53.162Z,10.98
2023-05-15T07:06:24.204Z,10.99
2023-05-15T07:09:01.357Z,11.01
2023-05-15T07:11:32.205Z,10.99
2023-05-15T07:14:01.948Z,10.96
2023-05-15T07:16:32.718Z,10.92
2023-05-15T07:19:03.238Z,10.89
2023-05-15T07:21:33.821Z,10.91
2023-05-15T07:24:03.999Z,10.94
2023-05-15T07:26:41.026Z,10.94
2023-05-15T07:29:19.348Z,10.95
2023-05-15T07:31:49.445Z,10.94
2023-05-15T07:34:19.265Z,10.88
2023-05-15T07:36:49.270Z,10.88
2023-05-15T07:39:18.993Z,10.88
2023-05-15T07:41:49.957Z,10.82
2023-05-15T07:44:19.915Z,10.81
2023-05-15T07:46:49.663Z,10.82
2023-05-15T07:49:21.272Z,10.87
2023-05-15T07:51:52.119Z,10.82
2023-05-15T07:54:22.381Z,10.82
2023-05-15T07:56:52.290Z,10.82
2023-05-15T07:59:23.164Z,10.78
2023-05-15T08:01:53.720Z,10.78
2023-05-15T08:04:23.481Z,10.68
2023-05-15T08:06:53.592Z,10.71
2023-05-15T08:09:23.644Z,10.79
2023-05-15T08:11:58.779Z,10.78
2023-05-15T08:14:29.545Z,10.78
2023-05-15T08:16:59.787Z,10.75
2023-05-15T08:19:29.889Z,10.68
2023-05-15T08:22:00.002Z,10.65
2023-05-15T08:24:31.167Z,10.63
2023-05-15T08:27:01.857Z,10.64
2023-05-15T08:29:31.574Z,10.61
2023-05-15T08:32:02.697Z,10.60
2023-05-15T08:34:33.934Z,10.56
2023-05-15T08:37:04.249Z,10.58
2023-05-15T08:39:34.344Z,10.57
2023-05-15T08:42:15.553Z,10.57
2023-05-15T08:44:47.536Z,10.60
2023-05-15T08:47:21.358Z,10.61
2023-05-15T08:49:54.558Z,10.58
2023-05-15T08:52:26.739Z,10.53
2023-05-15T08:54:57.400Z,10.57
2023-05-15T08:57:29.494Z,10.51
2023-05-15T09:00:00.427Z,10.51
2023-05-15T09:02:31.437Z,10.54
2023-05-15T09:05:03.623Z,10.53
2023-05-15T09:07:34.267Z,10.43
2023-05-15T09:10:06.308Z,10.46
2023-05-15T09:12:37.936Z,10.48
2023-05-15T09:15:27.530Z,10.51
2023-05-15T09:17:58.464Z,10.53
2023-05-15T09:20:39.003Z,10.56
2023-05-15T09:23:27.956Z,10.61
2023-05-15T09:26:00.299Z,10.60
2023-05-15T09:28:38.300Z,10.53
2023-05-15T09:31:10.102Z,10.47
2023-05-15T09:33:46.432Z,10.44
2023-05-15T09:36:24.437Z,10.47
2023-05-15T09:39:01.419Z,10.47
2023-05-15T09:41:31.819Z,10.51
2023-05-15T09:44:01.490Z,10.63
2023-05-15T09:46:40.362Z,10.68
2023-05-15T09:49:18.273Z,10.58
2023-05-15T09:51:51.845Z,10.58
2023-05-15T09:54:25.591Z,10.68
2023-05-15T09:56:55.966Z,10.77
2023-05-15T09:59:26.125Z,10.72
2023-05-15T10:01:56.337Z,10.75
2023-05-15T10:04:25.774Z,10.77
2023-05-15T10:06:55.577Z,10.78
2023-05-15T10:09:33.623Z,10.85
2023-05-15T10:12:06.344Z,10.85
2023-05-15T10:14:37.829Z,10.92
2023-05-15T10:17:08.688Z,10.87
2023-05-15T10:19:47.203Z,10.84
2023-05-15T10:22:32.970Z,10.98
2023-05-15T10:25:15.390Z,11.06
2023-05-15T10:27:47.989Z,11.04
2023-05-15T10:30:18.384Z,11.09
2023-05-15T10:32:49.834Z,11.18
2023-05-15T10:35:20.920Z,11.36
2023-05-15T10:37:51.444Z,11.78
2023-05-15T10:40:21.596Z,13.82
2023-05-15T10:42:53.413Z,14.45
2023-05-15T10:45:23.828Z,15.29
2023-05-15T10:47:54.479Z,14.45
2023-05-15T10:50:24.976Z,14.33
2023-05-15T10:52:57.372Z,14.36
2023-05-15T10:55:27.916Z,14.51
2023-05-15T10:57:58.414Z,14.64
2023-05-15T11:00:34.743Z,15.57
2023-05-15T11:03:07.737Z,16.08
2023-05-15T11:06:13.856Z,15.13
2023-05-15T11:08:46.298Z,15.30
2023-05-15T11:11:56.891Z,15.85
2023-05-15T11:14:29.019Z,16.36
2023-05-15T11:17:05.089Z,15.93
2023-05-15T11:19:54.142Z,15.87
2023-05-15T11:22:33.714Z,16.41
2023-05-15T11:25:10.467Z,16.25
2023-05-15T11:27:46.040Z,17.79
2023-05-15T11:30:21.602Z,17.76
2023-05-15T11:32:58.384Z,17.62
2023-05-15T11:35:35.554Z,18.45
2023-05-15T11:38:23.534Z,19.45
2023-05-15T11:41:04.998Z,20.24
2023-05-15T11:43:37.744Z,20.47
2023-05-15T11:46:14.032Z,21.08
2023-05-15T11:48:43.667Z,21.88
2023-05-15T11:51:23.618Z,22.71
2023-05-15T11:53:56.194Z,22.96
2023-05-15T11:56:31.419Z,23.37
2023-05-15T11:59:05.473Z,23.27
2023-05-15T12:01:49.432Z,23.51
2023-05-15T12:04:20.905Z,23.64
2023-05-15T12:06:53.189Z,24.49
2023-05-15T12:09:28.870Z,25.03
2023-05-15T12:11:59.280Z,25.27
2023-05-15T12:14:30.703Z,25.54
2023-05-15T12:17:06.033Z,26.07
2023-05-15T12:19:37.811Z,25.52
2023-05-15T12:22:09.598Z,26.31
2023-05-15T12:24:40.972Z,25.82
2023-05-15T12:27:12.033Z,25.46
2023-05-15T12:29:44.739Z,25.90
2023-05-15T12:32:15.493Z,25.45
2023-05-15T12:34:45.949Z,25.83
2023-05-15T12:37:16.858Z,25.94
2023-05-15T12:39:57.781Z,26.34
2023-05-15T12:42:28.350Z,26.72
2023-05-15T12:44:59.450Z,25.59
2023-05-15T12:47:30.707Z,24.75
2023-05-15T12:50:02.248Z,24.35
2023-05-15T12:52:33.178Z,24.49
2023-05-15T12:55:05.008Z,24.52
2023-05-15T12:57:37.328Z,25.37
2023-05-15T13:00:08.989Z,25.42
2023-05-15T13:02:41.901Z,25.31
2023-05-15T13:05:12.874Z,24.90
2023-05-15T13:07:47.199Z,25.39
2023-05-15T13:10:17.574Z,26.27
2023-05-15T13:12:48.091Z,25.78
2023-05-15T13:15:47.995Z,25.11
2023-05-15T13:18:20.486Z,25.41
2023-05-15T13:20:55.805Z,25.86
2023-05-15T13:23:26.021Z,26.61
2023-05-15T13:25:56.509Z,25.66
2023-05-15T13:28:28.500Z,26.77
2023-05-15T13:30:58.579Z,26.95
2023-05-15T13:33:31.032Z,27.32
2023-05-15T13:36:01.946Z,26.16
2023-05-15T13:38:32.324Z,25.39
2023-05-15T13:41:02.284Z,25.78
2023-05-15T13:43:32.690Z,25.38
2023-05-15T13:46:02.588Z,25.45
2023-05-15T13:48:32.881Z,25.88
2023-05-15T13:51:03.931Z,26.17
2023-05-15T13:53:34.939Z,26.12
2023-05-15T13:56:05.116Z,26.41
2023-05-15T13:58:34.941Z,26.81
2023-05-15T14:01:08.530Z,27.25
2023-05-15T14:03:39.567Z,26.02
2023-05-15T14:06:10.479Z,26.52
2023-05-15T14:08:40.878Z,27.47
2023-05-15T14:11:10.623Z,27.13
2023-05-15T14:13:41.253Z,26.95
2023-05-15T14:16:11.981Z,26.19
2023-05-15T14:18:43.152Z,25.25
2023-05-15T14:21:13.312Z,25.45
2023-05-15T14:23:43.098Z,25.79
2023-05-15T14:26:14.944Z,25.97
2023-05-15T14:28:49.471Z,25.79
2023-05-15T14:31:19.459Z,25.89
2023-05-15T14:33:52.362Z,26.64
2023-05-15T14:36:22.794Z,26.61
2023-05-15T14:38:52.975Z,26.80
2023-05-15T14:41:24.876Z,26.61
2023-05-15T14:43:54.791Z,26.37
2023-05-15T14:46:24.649Z,25.75
2023-05-15T14:48:55.291Z,25.71
2023-05-15T14:51:25.927Z,26.09
2023-05-15T14:53:57.633Z,26.65
2023-05-15T14:56:28.146Z,26.95
2023-05-15T14:58:58.267Z,26.88
2023-05-15T15:01:29.885Z,27.22
2023-05-15T15:04:03.729Z,27.10
2023-05-15T15:06:33.847Z,27.02
2023-05-15T15:09:03.740Z,26.16
2023-05-15T15:20:38.512Z,26.64
2023-05-15T15:23:11.036Z,27.32
2023-05-15T15:25:41.576Z,26.72
2023-05-15T15:28:11.824Z,26.45
2023-05-15T15:30:43.582Z,26.82
2023-05-15T15:33:15.579Z,26.92
2023-05-15T15:35:47.549Z,26.87
2023-05-15T15:38:18.216Z,26.67
2023-05-15T15:40:49.064Z,26.75
2023-05-15T15:43:20.153Z,26.57
2023-05-15T15:45:51.646Z,26.68
2023-05-15T15:48:22.053Z,26.51
2023-05-15T15:50:54.663Z,26.36
2023-05-15T15:53:26.011Z,26.71
2023-05-15T15:55:57.293Z,26.78
2023-05-15T15:58:27.205Z,26.98
2023-05-15T16:00:57.110Z,27.09
2023-05-15T16:03:28.303Z,27.22
2023-05-15T16:06:00.053Z,27.03
2023-05-15T16:08:31.790Z,27.18
2023-05-15T16:11:02.339Z,27.01
2023-05-15T16:13:32.275Z,26.80
2023-05-15T16:16:03.300Z,26.85
2023-05-15T16:18:34.803Z,27.12
2023-05-15T16:21:06.028Z,27.32
2023-05-15T16:23:42.468Z,27.73
2023-05-15T16:26:13.597Z,27.36
2023-05-15T16:28:43.966Z,27.25
2023-05-15T16:31:15.305Z,27.22
2023-05-15T16:33:45.463Z,28.00
2023-05-15T16:36:15.940Z,28.41
2023-05-15T16:38:46.974Z,28.57
2023-05-15T16:41:16.896Z,28.59
2023-05-15T16:43:46.671Z,28.65
2023-05-15T16:46:17.245Z,28.39
2023-05-15T16:48:48.444Z,28.75
2023-05-15T16:51:19.013Z,29.15
2023-05-15T16:53:50.095Z,29.41
2023-05-15T16:56:20.296Z,29.06
2023-05-15T16:58:51.784Z,29.24
2023-05-15T17:01:22.355Z,29.58
2023-05-15T17:03:54.563Z,29.81
2023-05-15T17:06:25.056Z,30.29
2023-05-15T17:08:55.948Z,30.43
2023-05-15T17:11:26.789Z,30.84
2023-05-15T17:13:56.556Z,32.03
2023-05-15T17:16:26.587Z,32.08
2023-05-15T17:18:56.580Z,31.30
2023-05-15T17:21:27.801Z,31.81
2023-05-15T17:24:03.821Z,32.29
2023-05-15T17:26:34.184Z,32.89
2023-05-15T17:29:04.302Z,33.94
2023-05-15T17:31:36.980Z,33.99
2023-05-15T17:34:09.193Z,34.18
2023-05-15T17:36:39.110Z,34.06
2023-05-15T17:39:08.950Z,33.30
2023-05-15T17:41:40.017Z,33.14
2023-05-15T17:44:11.020Z,33.70
2023-05-15T17:46:43.504Z,32.64
2023-05-15T17:49:13.866Z,32.73
2023-05-15T17:51:44.176Z,33.02
2023-05-15T17:54:14.900Z,32.93
2023-05-15T17:56:47.310Z,33.34
2023-05-15T17:59:17.925Z,34.09
2023-05-15T18:01:48.780Z,33.47
2023-05-15T18:04:19.622Z,34.28
2023-05-15T18:06:51.741Z,33.99
2023-05-15T18:09:24.031Z,34.55
2023-05-15T18:11:55.070Z,33.22
2023-05-15T18:14:24.825Z,33.98
2023-05-15T18:16:56.433Z,33.87
2023-05-15T18:19:26.923Z,33.16
2023-05-15T18:21:58.611Z,32.80
2023-05-15T18:24:28.538Z,31.96
2023-05-15T18:26:58.365Z,30.72
2023-05-15T18:29:29.788Z,30.14
2023-05-15T18:32:00.052Z,29.15
2023-05-15T18:34:34.782Z,29.52
2023-05-15T18:37:04.998Z,29.39
2023-05-15T18:39:35.191Z,29.64
2023-05-15T18:42:06.697Z,29.02
2023-05-15T18:44:37.475Z,28.48
2023-05-15T18:47:07.500Z,27.57
2023-05-15T18:49:37.706Z,27.97
2023-05-15T18:52:08.617Z,26.95
2023-05-15T18:54:41.633Z,27.98
2023-05-15T18:57:11.913Z,28.44
2023-05-15T18:59:43.053Z,27.73
2023-05-15T19:02:14.436Z,27.88
2023-05-15T19:04:45.261Z,26.54
2023-05-15T19:07:15.282Z,25.86
2023-05-15T19:09:45.427Z,24.84
2023-05-15T19:12:15.700Z,24.46
2023-05-15T19:14:46.165Z,24.11
2023-05-15T19:17:17.914Z,24.02
2023-05-15T19:19:48.915Z,23.87
2023-05-15T19:22:19.459Z,23.89
2023-05-15T19:24:49.506Z,23.74
2023-05-15T19:27:20.600Z,23.70
2023-05-15T19:29:51.490Z,23.51
2023-05-15T19:32:21.874Z,23.42
2023-05-15T19:34:51.799Z,23.37
2023-05-15T19:37:22.169Z,23.36
2023-05-15T19:39:52.131Z,23.37
2023-05-15T19:42:22.284Z,23.36
2023-05-15T19:44:52.057Z,23.20
2023-05-15T19:47:22.262Z,23.05
2023-05-15T19:49:53.108Z,23.03
2023-05-15T19:52:25.577Z,22.98
2023-05-15T19:54:56.003Z,22.75
2023-05-15T19:57:27.050Z,22.73
2023-05-15T19:59:57.131Z,22.69
2023-05-15T20:02:27.928Z,22.45
2023-05-15T20:04:58.341Z,22.37
2023-05-15T20:07:28.325Z,22.21
2023-05-15T20:09:58.482Z,21.96
2023-05-15T20:12:30.465Z,21.72
2023-05-15T20:15:00.856Z,21.49
2023-05-15T20:17:31.148Z,21.30
2023-05-15T20:20:01.059Z,20.97
2023-05-15T20:22:32.698Z,20.77
2023-05-15T20:25:03.436Z,20.46
2023-05-15T20:27:33.291Z,20.22
2023-05-15T20:30:05.059Z,19.99
2023-05-15T20:32:35.407Z,19.77
2023-05-15T20:35:06.298Z,19.46
2023-05-15T20:37:41.637Z,19.29
2023-05-15T20:40:16.846Z,19.13
2023-05-15T20:42:47.137Z,18.94
2023-05-15T20:45:18.345Z,18.79
2023-05-15T20:47:50.673Z,18.61
2023-05-15T20:50:20.944Z,18.38
2023-05-15T20:52:50.951Z,18.23
2023-05-15T20:55:22.860Z,18.13
2023-05-15T20:57:53.650Z,17.86
2023-05-15T21:00:23.983Z,17.69
2023-05-15T21:02:57.227Z,17.48
2023-05-15T21:05:27.236Z,17.44
2023-05-15T21:07:57.919Z,17.35
2023-05-15T21:10:29.214Z,17.25
2023-05-15T21:13:00.055Z,17.10
2023-05-15T21:15:30.571Z,17.06
2023-05-15T21:18:00.867Z,16.97
2023-05-15T21:20:32.947Z,16.87
2023-05-15T21:23:05.100Z,16.74
2023-05-15T21:25:35.318Z,16.69
2023-05-15T21:28:07.112Z,16.66
2023-05-15T21:30:39.200Z,16.56
2023-05-15T21:33:09.520Z,16.55
2023-05-15T21:35:40.838Z,16.49
2023-05-15T21:38:12.345Z,16.39
2023-05-15T21:40:44.485Z,16.32
2023-05-15T21:43:15.131Z,16.28
2023-05-15T21:45:45.570Z,16.18
2023-05-15T21:48:17.131Z,16.15
2023-05-15T21:50:48.477Z,16.15
2023-05-15T21:53:18.660Z,16.15
2023-05-15T21:55:50.059Z,16.08
2023-05-15T21:58:21.182Z,15.98
2023-05-15T22:00:52.796Z,15.93
2023-05-15T22:03:23.384Z,15.90
2023-05-15T22:05:53.924Z,15.87
2023-05-15T22:08:24.575Z,15.83
2023-05-15T22:10:55.924Z,15.78
2023-05-15T22:13:26.204Z,15.80
2023-05-15T22:15:56.229Z,15.78
2023-05-15T22:18:28.258Z,15.73
2023-05-15T22:20:59.475Z,15.63
2023-05-15T22:23:29.609Z,15.46
2023-05-15T22:25:59.421Z,15.43
2023-05-15T22:28:31.650Z,15.43
2023-05-15T22:31:02.857Z,15.42
2023-05-15T22:33:33.063Z,15.33
2023-05-15T22:36:02.820Z,15.19
2023-05-15T22:38:33.018Z,15.10
2023-05-15T22:41:03.935Z,15.02
2023-05-15T22:43:35.979Z,15.00
2023-05-15T22:46:06.121Z,15.02
2023-05-15T22:48:37.688Z,15.05
2023-05-15T22:51:09.680Z,15.06
2023-05-15T22:53:40.661Z,15.03
2023-05-15T22:56:10.822Z,15.08
2023-05-15T22:58:40.632Z,15.00
2023-05-15T23:01:12.306Z,14.93
2023-05-15T23:03:43.701Z,15.00
2023-05-15T23:06:24.568Z,14.96
2023-05-15T23:08:54.529Z,14.89
2023-05-15T23:11:26.138Z,14.85
2023-05-15T23:13:57.834Z,14.81
2023-05-15T23:16:28.911Z,14.77
2023-05-15T23:19:00.408Z,14.79
2023-05-15T23:21:30.643Z,14.74
2023-05-15T23:24:01.970Z,14.71
2023-05-15T23:26:33.240Z,14.67
2023-05-15T23:29:03.389Z,14.75
2023-05-15T23:31:35.375Z,14.61
2023-05-15T23:34:07.347Z,14.51
2023-05-15T23:36:39.841Z,14.56
2023-05-15T23:39:10.281Z,14.64
2023-05-15T23:41:41.754Z,14.65
2023-05-15T23:44:12.705Z,14.54
2023-05-15T23:46:43.539Z,14.50
2023-05-15T23:49:14.122Z,14.57
2023-05-15T23:51:45.311Z,14.52
2023-05-15T23:54:17.103Z,14.38
2023-05-15T23:56:49.881Z,14.30
2023-05-15T23:59:20.233Z,14.27
